Terminal Aerodrome Forecast
Issued by NWS

Home | Current Version | Previous Version | Text Only | Print | Product List | Glossary On
Versions: 1 2 3 4 5 6 7 8 9 10 11 12 13 14 15
000
FTUS45 KABQ 261100
TAFGUP
TAF
KGUP 261133Z 2612/2712 VRB03KT P6SM FEW140
     FM261800 32007KT P6SM SCT090
     FM262000 32011KT P6SM VCTS BKN090CB
     FM270200 VRB05KT P6SM BKN100=

USA.gov is the U.S. government's official web portal to all federal, state and local government web resources and services.